Terminal Aerodrome Forecast
Issued by NWS

Home | Current Version | Previous Version | Text Only | Print | Product List | Glossary On
Versions: 1 2 3 4 5 6 7 8 9 10 11 12 13 14 15 16 17 18 19 20 21 22 23
031
FTUS44 KBMX 030605 AAA
TAFMGM
TAF AMD
KMGM 030605Z 0306/0406 00000KT P6SM OVC003
     FM031000 VRB02KT 4SM BR VCSH BKN008
     FM031500 22004KT P6SM VCSH BKN015
     FM031800 28009KT P6SM VCSH BKN060
     FM040000 30007KT P6SM BKN250=

USA.gov is the U.S. government's official web portal to all federal, state and local government web resources and services.